Little Fort, Canada
Current Conditions -  °F | °C
As of 9:00 AM on Thursday 27 Nov 2014 (Local Time) from CYKA Reporting Station
Broken Clouds Broken Clouds  
Wind Chill: 29°   Ceiling: 5700
Heat Index: 37°   Visibility: 30mi
Dew Point: 34°   Wind: 14mph
Humidity: 87%   Direction: 80°E
Pressure: 29.66"   Gusts: NA
Location:  51.43°N, 120.2°W
Report Text: CYKA 271700Z 08012KT 30SM FEW012 BKN057 BKN100 03/01 A2966 RMK SC2SC4AC1 SLP058
Loading
Personal Weather Stations






























Interactive Weather Map New forecast layout! Learn more

10-Day Weather Forecast

Advertisements
Track Severe Weather on mobile